Time;durP1;ratioP1;P1;durP2;ratioP2;P2;SDS_P1;SDS_P2;PMS_P1;PMS_P2;Temp;Humidity;BMP_temperature;BMP_pressure;BME280_temperature;BME280_humidity;BME280_pressure;Samples;Min_cycle;Max_cycle;Signal;HPM_P1;HPM_P2
2022/03/07 02:54:00;;;;;;;0.30;0.30;;;-0.50;73.80;;;;;;5046156;28;20474;-80
2022/03/07 02:56:27;;;;;;;0.40;0.40;;;-0.50;73.10;;;;;;5056260;28;20481;-80
2022/03/07 02:58:54;;;;;;;0.40;0.40;;;-0.50;72.90;;;;;;5056020;28;20457;-80
2022/03/07 03:01:21;;;;;;;0.30;0.30;;;-0.60;72.70;;;;;;5053554;28;20490;-80
2022/03/07 03:03:47;;;;;;;0.40;0.40;;;-0.70;72.80;;;;;;5052328;28;20451;-79
2022/03/07 03:06:14;;;;;;;0.30;0.30;;;-0.70;72.80;;;;;;5053605;28;20446;-80
2022/03/07 03:08:41;;;;;;;0.67;0.67;;;-0.70;72.40;;;;;;5052646;28;20454;-80
2022/03/07 03:11:12;;;;;;;0.40;0.40;;;-0.80;73.00;;;;;;5055102;28;20512;-80
2022/03/07 03:13:39;;;;;;;0.30;0.30;;;-0.70;72.50;;;;;;5056035;28;20518;-81
2022/03/07 03:16:06;;;;;;;0.30;0.30;;;-0.80;72.90;;;;;;5056979;28;20467;-80
2022/03/07 03:18:33;;;;;;;0.37;0.37;;;-0.80;72.60;;;;;;5057151;28;20477;-81
2022/03/07 03:21:46;;;;;;;0.30;0.20;;;-0.80;72.40;;;;;;5056942;28;20533;-81
2022/03/07 03:24:13;;;;;;;0.30;0.23;;;-0.80;72.30;;;;;;5058479;28;20498;-80
2022/03/07 03:26:41;;;;;;;0.40;0.40;;;-0.80;72.30;;;;;;5057389;28;20448;-80
2022/03/07 03:29:08;;;;;;;0.30;0.30;;;-0.80;72.50;;;;;;5055473;28;20508;-80
2022/03/07 03:31:34;;;;;;;0.30;0.30;;;-0.90;72.90;;;;;;5054057;28;20482;-80
2022/03/07 03:34:01;;;;;;;0.30;0.20;;;-1.00;73.20;;;;;;5052519;28;20442;-81
2022/03/07 03:36:28;;;;;;;0.40;0.30;;;-1.10;73.50;;;;;;5049677;28;20457;-81
2022/03/07 03:38:55;;;;;;;0.70;0.70;;;-1.10;74.60;;;;;;5049307;28;20498;-81
2022/03/07 03:41:22;;;;;;;0.87;0.60;;;-1.20;74.80;;;;;;5051256;28;20483;-80
2022/03/07 03:43:50;;;;;;;0.47;0.47;;;-1.10;74.70;;;;;;5056818;28;20437;-80
2022/03/07 03:46:16;;;;;;;0.40;0.40;;;-1.10;74.20;;;;;;5057100;28;20510;-80
2022/03/07 03:48:43;;;;;;;0.30;0.30;;;-1.10;74.10;;;;;;5056003;28;20474;-81
2022/03/07 03:51:10;;;;;;;0.30;0.30;;;-1.10;74.30;;;;;;5060906;28;20457;-80
2022/03/07 03:53:37;;;;;;;0.40;0.40;;;-1.10;73.80;;;;;;5070300;28;20548;-79
2022/03/07 03:56:04;;;;;;;0.30;0.30;;;-1.10;73.80;;;;;;5080937;28;20480;-80
2022/03/07 04:01:08;;;;;;;0.30;0.30;;;-1.20;74.20;;;;;;5310801;22;20456;-83
2022/03/07 04:13:56;;;;;;;1.70;0.97;;;-1.20;73.70;;;;;;5563227;22;20434;-82
2022/03/07 04:21:35;;;;;;;0.30;0.30;;;-1.30;73.90;;;;;;5778388;22;20457;-79
2022/03/07 04:29:14;;;;;;;0.40;0.40;;;-1.40;73.70;;;;;;6247265;22;20382;-79
2022/03/07 04:31:42;;;;;;;0.30;0.30;;;-1.40;73.90;;;;;;5080165;28;20413;-79
2022/03/07 04:34:12;;;;;;;1.57;1.57;;;-1.50;73.90;;;;;;5081255;28;20408;-79
2022/03/07 04:36:42;;;;;;;0.50;0.50;;;-1.50;73.90;;;;;;5081231;28;20439;-79
2022/03/07 04:41:45;;;;;;;0.30;0.30;;;-1.60;74.50;;;;;;5447566;22;20476;-79
2022/03/07 04:44:12;;;;;;;0.30;0.30;;;-1.60;74.50;;;;;;5081073;28;20457;-80
2022/03/07 04:46:39;;;;;;;4.40;0.83;;;-1.50;74.40;;;;;;5081165;28;20438;-78
2022/03/07 04:49:09;;;;;;;0.30;0.30;;;-1.60;74.40;;;;;;5081064;28;20436;-79
2022/03/07 04:51:39;;;;;;;0.30;0.30;;;-1.60;74.70;;;;;;5080969;28;20400;-80
2022/03/07 04:54:07;;;;;;;0.30;0.30;;;-1.60;74.60;;;;;;5080891;28;20440;-78
2022/03/07 04:56:34;;;;;;;0.40;0.40;;;-1.60;74.70;;;;;;5081009;28;20440;-79
2022/03/07 04:59:01;;;;;;;0.30;0.30;;;-1.60;74.80;;;;;;5080867;28;20446;-79
2022/03/07 05:01:28;;;;;;;0.70;0.70;;;-1.60;74.80;;;;;;5080312;28;20489;-79
2022/03/07 05:03:55;;;;;;;1.33;1.23;;;-1.70;74.90;;;;;;5080816;28;20451;-78
2022/03/07 05:06:22;;;;;;;0.30;0.27;;;-1.70;75.20;;;;;;5080829;28;20440;-79
2022/03/07 05:11:26;;;;;;;0.73;0.73;;;-1.60;75.60;;;;;;5626044;22;20443;-79
2022/03/07 05:13:53;;;;;;;0.30;0.30;;;-1.70;75.80;;;;;;5080546;28;20449;-79
2022/03/07 05:16:20;;;;;;;0.30;0.30;;;-1.70;76.00;;;;;;5080397;28;20493;-79
2022/03/07 05:24:06;;;;;;;0.30;0.30;;;-1.70;76.10;;;;;;6122002;22;20508;-79
2022/03/07 05:26:35;;;;;;;1.13;0.83;;;-1.70;76.40;;;;;;5078007;28;20389;-80
2022/03/07 05:29:03;;;;;;;0.67;0.67;;;-1.70;76.40;;;;;;5080134;28;20473;-80
2022/03/07 05:31:30;;;;;;;0.30;0.30;;;-1.60;76.40;;;;;;5080160;28;20426;-79
2022/03/07 05:33:56;;;;;;;0.40;0.40;;;-1.70;76.40;;;;;;5079649;28;20514;-80
2022/03/07 05:36:24;;;;;;;0.30;0.30;;;-1.60;76.60;;;;;;5080116;28;20432;-79
2022/03/07 05:38:51;;;;;;;0.50;0.50;;;-1.60;76.90;;;;;;5111800;22;20494;-80
2022/03/07 05:41:18;;;;;;;0.30;0.30;;;-1.60;77.00;;;;;;5059806;28;20422;-80
2022/03/07 05:43:46;;;;;;;0.30;0.30;;;-1.60;77.10;;;;;;5059705;28;20429;-79
2022/03/07 05:46:13;;;;;;;0.97;0.80;;;-1.60;77.00;;;;;;5059730;28;20444;-78
2022/03/07 05:48:40;;;;;;;0.30;0.30;;;-1.60;77.20;;;;;;5059768;28;20451;-80
2022/03/07 05:51:07;;;;;;;0.40;0.40;;;-1.60;77.50;;;;;;5059898;28;20437;-82
2022/03/07 05:53:34;;;;;;;0.30;0.30;;;-1.60;78.00;;;;;;5059526;28;20721;-81
2022/03/07 05:56:02;;;;;;;0.30;0.30;;;-1.60;78.30;;;;;;5059739;28;20470;-81
2022/03/07 06:02:14;;;;;;;0.30;0.30;;;-1.60;79.00;;;;;;5005731;28;20471;-80
2022/03/07 06:04:44;;;;;;;0.30;0.30;;;-1.70;79.20;;;;;;5051987;28;20460;-79
2022/03/07 06:07:11;;;;;;;0.30;0.30;;;-1.60;79.30;;;;;;5052114;28;20642;-78
2022/03/07 06:09:38;;;;;;;0.57;0.57;;;-1.60;79.40;;;;;;5052357;28;20475;-79
2022/03/07 06:12:06;;;;;;;0.30;0.30;;;-1.60;79.50;;;;;;5048350;28;20505;-79
2022/03/07 06:14:34;;;;;;;0.50;0.50;;;-1.60;80.10;;;;;;5049977;28;20463;-79
2022/03/07 06:17:01;;;;;;;0.57;0.57;;;-1.60;80.00;;;;;;5050677;28;20451;-79
2022/03/07 06:19:28;;;;;;;0.80;0.80;;;-1.60;80.30;;;;;;5049447;28;20536;-79
2022/03/07 06:21:56;;;;;;;0.60;0.60;;;-1.40;80.50;;;;;;5050225;28;20433;-79
2022/03/07 06:24:23;;;;;;;0.30;0.30;;;-1.20;80.00;;;;;;5049711;28;20444;-79
2022/03/07 06:26:50;;;;;;;0.70;0.70;;;-1.00;79.70;;;;;;5046969;28;20434;-80
2022/03/07 06:29:17;;;;;;;0.93;0.93;;;-1.00;79.10;;;;;;5044563;28;20473;-79
2022/03/07 06:31:44;;;;;;;0.87;0.87;;;-1.00;79.60;;;;;;5044408;28;20413;-79
2022/03/07 06:34:12;;;;;;;0.40;0.40;;;-1.10;79.60;;;;;;5045442;28;20481;-79
2022/03/07 06:36:40;;;;;;;1.33;1.33;;;-1.10;79.80;;;;;;5048798;28;20462;-78
2022/03/07 06:39:09;;;;;;;0.30;0.30;;;-1.20;80.10;;;;;;5049564;28;20461;-81
2022/03/07 06:41:36;;;;;;;0.40;0.40;;;-1.30;80.60;;;;;;5049946;28;20506;-82
2022/03/07 06:44:03;;;;;;;0.30;0.30;;;-1.30;80.80;;;;;;5050015;28;20934;-79
2022/03/07 06:46:30;;;;;;;0.40;0.40;;;-1.30;81.20;;;;;;5050583;28;20449;-79
2022/03/07 06:48:57;;;;;;;0.30;0.30;;;-1.40;81.50;;;;;;5049753;28;20467;-78
2022/03/07 06:51:24;;;;;;;2.60;0.97;;;-1.40;82.00;;;;;;5047422;28;20541;-79
2022/03/07 06:53:51;;;;;;;0.40;0.40;;;-1.40;82.00;;;;;;5050817;28;20450;-79
2022/03/07 06:56:19;;;;;;;0.30;0.20;;;-1.40;81.90;;;;;;5051448;28;20426;-79
2022/03/07 06:58:47;;;;;;;0.30;0.30;;;-1.30;81.70;;;;;;5052701;28;20470;-79
2022/03/07 07:01:14;;;;;;;0.30;0.30;;;-1.30;81.50;;;;;;5050208;28;20431;-79
2022/03/07 07:03:41;;;;;;;0.60;0.50;;;-1.20;82.60;;;;;;5049814;28;20803;-78
2022/03/07 07:06:08;;;;;;;1.63;0.77;;;-1.20;82.00;;;;;;5044716;28;20992;-78
2022/03/07 07:08:35;;;;;;;0.40;0.40;;;-1.10;81.50;;;;;;5041681;28;20493;-78
2022/03/07 07:11:02;;;;;;;0.50;0.50;;;-1.00;81.40;;;;;;5037846;28;20500;-78
2022/03/07 07:13:30;;;;;;;0.30;0.30;;;-1.00;81.30;;;;;;5037807;28;20443;-78
2022/03/07 07:15:57;;;;;;;0.33;0.33;;;-1.00;81.10;;;;;;5039047;28;20438;-78
2022/03/07 07:18:25;;;;;;;0.40;0.40;;;-1.00;81.30;;;;;;5039083;28;20424;-78
2022/03/07 07:20:53;;;;;;;0.30;0.30;;;-1.00;81.70;;;;;;5040777;28;20455;-77
2022/03/07 07:23:20;;;;;;;1.30;1.23;;;-0.90;81.50;;;;;;5045362;28;20517;-78
2022/03/07 07:25:47;;;;;;;0.30;0.30;;;-0.80;80.90;;;;;;5044873;28;20510;-79
2022/03/07 07:28:15;;;;;;;0.30;0.30;;;-0.80;80.80;;;;;;5045506;28;20528;-79
2022/03/07 07:30:45;;;;;;;0.30;0.30;;;-0.70;80.60;;;;;;5043625;28;20989;-78
2022/03/07 07:33:11;;;;;;;0.30;0.30;;;-0.70;80.40;;;;;;5042194;28;20932;-78
2022/03/07 07:35:38;;;;;;;1.47;0.80;;;-0.70;80.10;;;;;;5042835;28;20427;-85
2022/03/07 07:38:07;;;;;;;1.80;1.70;;;-0.60;80.20;;;;;;5045695;28;20961;-79
2022/03/07 07:40:33;;;;;;;0.30;0.30;;;-0.50;80.60;;;;;;5045729;28;20565;-78
2022/03/07 07:43:00;;;;;;;0.30;0.30;;;-0.40;80.10;;;;;;5045346;28;20497;-79
2022/03/07 07:45:27;;;;;;;0.67;0.50;;;-0.30;79.60;;;;;;5044040;28;20438;-79
2022/03/07 07:47:57;;;;;;;0.30;0.30;;;-0.20;80.00;;;;;;5043029;28;20477;-80
2022/03/07 07:50:24;;;;;;;0.30;0.30;;;-0.20;79.30;;;;;;5041850;28;20434;-79
2022/03/07 07:52:51;;;;;;;0.30;0.30;;;-0.20;79.00;;;;;;5044242;28;20529;-78
2022/03/07 07:55:19;;;;;;;0.53;0.53;;;-0.10;78.40;;;;;;5047320;28;20554;-79
2022/03/07 07:57:46;;;;;;;0.30;0.30;;;-0.10;78.50;;;;;;5042340;28;20461;-78
2022/03/07 08:40:40;;;;;;;0.30;0.30;;;1.50;73.00;;;;;;5038661;28;20470;-83
2022/03/07 08:43:07;;;;;;;0.97;0.83;;;1.70;72.30;;;;;;5036318;28;20537;-83
2022/03/07 08:45:35;;;;;;;0.40;0.40;;;1.90;71.80;;;;;;5035843;28;20457;-83
2022/03/07 08:48:03;;;;;;;0.30;0.30;;;2.10;69.90;;;;;;5035936;28;20454;-83
2022/03/07 08:50:32;;;;;;;0.40;0.40;;;2.30;69.10;;;;;;5038765;28;20474;-84
2022/03/07 08:52:59;;;;;;;0.30;0.30;;;2.40;68.00;;;;;;5036465;28;20534;-83
2022/03/07 08:55:26;;;;;;;0.30;0.30;;;2.70;67.50;;;;;;5037220;28;20454;-83
2022/03/07 08:57:54;;;;;;;2.10;1.23;;;2.70;67.30;;;;;;5035126;28;20564;-82
2022/03/07 09:00:21;;;;;;;0.40;0.40;;;2.70;67.60;;;;;;5035585;28;20812;-83
2022/03/07 09:02:48;;;;;;;1.03;1.03;;;2.80;67.40;;;;;;5034732;28;20479;-83
2022/03/07 09:05:16;;;;;;;0.30;0.30;;;3.00;67.50;;;;;;5034918;28;20434;-82
2022/03/07 09:07:42;;;;;;;0.30;0.30;;;3.30;66.60;;;;;;5034960;28;20457;-85
2022/03/07 09:10:10;;;;;;;0.30;0.30;;;3.40;65.40;;;;;;5034986;28;20482;-79
2022/03/07 09:12:37;;;;;;;6.43;0.97;;;3.60;63.50;;;;;;5034991;28;20442;-84
2022/03/07 09:15:07;;;;;;;0.30;0.20;;;3.70;64.30;;;;;;5034959;28;20526;-84
2022/03/07 09:17:33;;;;;;;0.60;0.60;;;4.20;62.50;;;;;;5034548;28;20435;-83
2022/03/07 09:20:00;;;;;;;0.30;0.30;;;4.50;60.70;;;;;;5034423;28;20994;-83
2022/03/07 09:22:27;;;;;;;0.40;0.40;;;4.50;58.70;;;;;;5034597;28;20486;-83
2022/03/07 09:24:55;;;;;;;4.00;0.80;;;4.50;59.20;;;;;;5034667;28;20517;-83
2022/03/07 09:27:22;;;;;;;0.30;0.30;;;4.30;60.10;;;;;;5034674;28;20821;-82
2022/03/07 09:29:49;;;;;;;0.30;0.20;;;4.30;59.70;;;;;;5034476;28;20467;-82
2022/03/07 09:32:17;;;;;;;1.63;1.53;;;4.40;59.40;;;;;;5034399;28;20447;-83
2022/03/07 09:34:44;;;;;;;0.67;0.30;;;4.40;58.20;;;;;;5034283;28;20439;-81
2022/03/07 09:37:11;;;;;;;0.33;0.33;;;4.50;59.30;;;;;;5034442;28;20455;-84
2022/03/07 09:39:39;;;;;;;0.30;0.30;;;5.70;58.70;;;;;;5033996;28;20489;-83
2022/03/07 09:42:06;;;;;;;0.30;0.30;;;7.40;55.80;;;;;;5034210;28;20470;-84
2022/03/07 09:44:33;;;;;;;0.40;0.30;;;8.60;53.00;;;;;;5034437;28;20461;-85
2022/03/07 09:47:03;;;;;;;1.90;0.80;;;9.50;50.40;;;;;;5034526;28;20942;-84
2022/03/07 09:49:31;;;;;;;0.40;0.40;;;9.30;49.30;;;;;;5034035;28;20474;-85
2022/03/07 09:51:59;;;;;;;1.73;0.47;;;8.40;50.20;;;;;;5034107;28;20465;-84
2022/03/07 09:54:26;;;;;;;0.60;0.60;;;8.30;51.10;;;;;;5034037;28;20441;-83
2022/03/07 09:56:54;;;;;;;1.03;0.60;;;8.70;51.00;;;;;;5033763;28;20470;-82
2022/03/07 09:59:22;;;;;;;0.40;0.37;;;9.60;49.10;;;;;;5033818;28;20463;-82
2022/03/07 10:02:00;;;;;;;3.23;0.73;;;10.00;46.60;;;;;;5033799;28;20451;-84
2022/03/07 10:04:28;;;;;;;0.30;0.30;;;9.90;47.00;;;;;;5033792;28;20478;-83
2022/03/07 10:06:57;;;;;;;0.40;0.40;;;9.50;47.00;;;;;;5033606;28;20445;-84
2022/03/07 10:09:26;;;;;;;0.70;0.70;;;9.30;48.20;;;;;;5033825;28;20462;-80
2022/03/07 10:11:55;;;;;;;0.90;0.50;;;9.00;47.50;;;;;;5033727;28;20532;-83
2022/03/07 10:14:31;;;;;;;2.00;0.80;;;8.60;48.50;;;;;;5033353;28;20465;-84
2022/03/07 10:16:58;;;;;;;0.40;0.40;;;8.70;48.40;;;;;;5033820;28;20438;-79
2022/03/07 10:19:26;;;;;;;0.57;0.57;;;9.20;48.20;;;;;;5033381;28;20829;-80
2022/03/07 10:21:54;;;;;;;2.80;0.70;;;9.60;47.40;;;;;;5033697;28;20439;-81
2022/03/07 10:24:32;;;;;;;0.57;0.57;;;9.70;47.40;;;;;;5034047;28;20435;-82
2022/03/07 10:26:59;;;;;;;1.20;0.53;;;9.20;47.10;;;;;;5033581;28;20438;-81
2022/03/07 10:29:26;;;;;;;0.73;0.60;;;8.30;49.00;;;;;;5033759;28;20466;-81
2022/03/07 10:31:53;;;;;;;0.80;0.80;;;7.10;49.50;;;;;;5033212;28;20986;-83
2022/03/07 10:34:20;;;;;;;0.73;0.40;;;6.40;51.30;;;;;;5033264;28;20427;-77
2022/03/07 10:36:48;;;;;;;0.50;0.50;;;6.70;51.50;;;;;;5033453;28;20439;-82
2022/03/07 10:39:22;;;;;;;0.30;0.30;;;7.50;50.30;;;;;;5033155;28;20481;-83
2022/03/07 10:41:50;;;;;;;0.40;0.40;;;8.20;49.60;;;;;;5033262;28;20934;-82
2022/03/07 10:44:29;;;;;;;0.40;0.40;;;9.30;48.10;;;;;;5033006;28;20470;-82
2022/03/07 10:47:11;;;;;;;0.53;0.53;;;9.20;47.20;;;;;;5033324;28;20431;-82
2022/03/07 10:49:48;;;;;;;0.80;0.57;;;8.00;48.40;;;;;;5030317;28;20485;-82
2022/03/07 10:52:15;;;;;;;0.50;0.50;;;7.40;50.80;;;;;;5032995;28;20461;-81
2022/03/07 10:54:41;;;;;;;1.33;0.53;;;7.90;50.50;;;;;;5033279;28;20435;-84
2022/03/07 10:57:10;;;;;;;0.67;0.50;;;8.30;49.50;;;;;;5032993;28;20434;-83
2022/03/07 10:59:38;;;;;;;0.40;0.40;;;8.30;48.50;;;;;;5035891;28;20462;-83
2022/03/07 11:02:09;;;;;;;0.50;0.50;;;7.70;48.80;;;;;;5037059;28;20407;-82
2022/03/07 11:04:37;;;;;;;1.23;0.63;;;7.90;50.10;;;;;;5037507;28;20530;-81
2022/03/07 11:07:04;;;;;;;0.50;0.40;;;9.40;48.80;;;;;;5037468;28;20485;-81
2022/03/07 11:09:31;;;;;;;0.40;0.40;;;9.40;47.10;;;;;;5037135;28;20471;-81
2022/03/07 11:11:58;;;;;;;1.07;1.07;;;8.30;47.90;;;;;;5037126;28;20427;-82
2022/03/07 11:14:28;;;;;;;0.50;0.50;;;7.10;50.30;;;;;;5037004;28;20433;-80
2022/03/07 11:16:56;;;;;;;0.30;0.30;;;6.10;52.00;;;;;;5037115;28;20447;-82
2022/03/07 11:19:24;;;;;;;0.30;0.30;;;5.70;53.30;;;;;;5036728;28;20474;-81
2022/03/07 11:21:52;;;;;;;0.90;0.90;;;5.80;53.50;;;;;;5036949;28;20435;-81
2022/03/07 11:24:19;;;;;;;0.77;0.77;;;5.60;53.30;;;;;;5036623;28;20474;-81
2022/03/07 11:26:48;;;;;;;0.30;0.30;;;5.60;54.20;;;;;;5037289;28;20450;-82
2022/03/07 11:29:16;;;;;;;0.50;0.47;;;5.70;54.00;;;;;;5036346;28;20470;-83
2022/03/07 11:31:45;;;;;;;0.30;0.30;;;5.70;54.00;;;;;;5036782;28;20490;-84
2022/03/07 11:34:13;;;;;;;0.50;0.50;;;5.70;53.90;;;;;;5036719;28;20434;-86
2022/03/07 11:47:22;;;;;;;0.90;0.60;;;5.00;54.50;;;;;;4917117;29;20462;-87
2022/03/07 11:50:00;;;;;;;0.93;0.93;;;5.00;55.70;;;;;;4969653;28;20984;-87
2022/03/07 11:52:27;;;;;;;1.33;1.33;;;5.30;55.70;;;;;;5016825;28;20451;-88
2022/03/07 11:54:55;;;;;;;0.40;0.37;;;5.60;54.70;;;;;;5016608;28;20452;-88
2022/03/07 11:57:33;;;;;;;0.50;0.40;;;5.80;54.30;;;;;;5017248;28;20798;-86
2022/03/07 12:00:17;;;;;;;0.40;0.30;;;5.70;54.60;;;;;;5016507;28;20463;-88
2022/03/07 12:02:47;;;;;;;1.43;0.40;;;5.90;55.40;;;;;;5016391;28;20478;-87
2022/03/07 12:05:31;;;;;;;0.30;0.30;;;6.00;55.10;;;;;;5016387;28;20491;-82
2022/03/07 12:08:08;;;;;;;0.67;0.67;;;5.90;53.60;;;;;;5016253;28;20441;-85
2022/03/07 12:10:36;;;;;;;0.50;0.50;;;5.40;53.90;;;;;;5015045;28;20436;-85
2022/03/07 12:13:07;;;;;;;0.30;0.30;;;5.00;54.40;;;;;;5016313;28;20803;-86
2022/03/07 12:15:44;;;;;;;0.40;0.40;;;4.60;55.10;;;;;;5016086;28;20463;-85
2022/03/07 12:18:13;;;;;;;1.57;1.57;;;4.20;56.00;;;;;;5016268;28;20455;-86
2022/03/07 12:20:51;;;;;;;0.90;0.90;;;4.10;56.60;;;;;;5017821;28;20436;-86
2022/03/07 12:23:18;;;;;;;1.07;0.50;;;3.80;57.20;;;;;;5016933;28;20833;-86
2022/03/07 12:25:45;;;;;;;0.30;0.20;;;3.80;57.50;;;;;;5015993;28;20443;-81
2022/03/07 12:28:13;;;;;;;1.07;0.97;;;4.00;57.60;;;;;;5015600;28;20991;-80
2022/03/07 12:30:40;;;;;;;0.30;0.30;;;4.10;56.70;;;;;;5016160;28;20436;-81
2022/03/07 12:33:09;;;;;;;3.60;0.63;;;4.10;56.50;;;;;;5015807;28;20792;-82
2022/03/07 12:35:37;;;;;;;0.60;0.50;;;4.00;56.00;;;;;;5016262;28;20891;-81
2022/03/07 12:38:07;;;;;;;0.40;0.40;;;3.90;56.40;;;;;;5015976;28;20447;-80
2022/03/07 12:40:36;;;;;;;0.50;0.40;;;3.80;56.60;;;;;;5015780;28;20448;-82
2022/03/07 12:43:04;;;;;;;2.40;0.60;;;3.90;56.80;;;;;;5015590;28;20479;-87
2022/03/07 12:45:31;;;;;;;0.50;0.50;;;4.00;56.80;;;;;;5015610;28;20456;-86
2022/03/07 12:47:57;;;;;;;3.00;0.53;;;4.10;56.80;;;;;;5035248;28;20477;-86
2022/03/07 12:50:28;;;;;;;0.30;0.30;;;4.30;56.70;;;;;;5036009;28;20453;-87
2022/03/07 12:59:40;;;;;;;0.60;0.47;;;4.30;55.60;;;;;;5034906;28;20457;-87
2022/03/07 13:02:07;;;;;;;0.43;0.43;;;4.20;56.70;;;;;;5035158;28;20447;-86
2022/03/07 13:04:34;;;;;;;0.30;0.30;;;3.90;56.00;;;;;;5035047;28;20482;-85
2022/03/07 13:07:09;;;;;;;2.40;0.80;;;3.70;56.60;;;;;;5034795;28;20442;-86
2022/03/07 13:09:36;;;;;;;0.30;0.30;;;3.60;57.00;;;;;;5034962;28;20533;-84
2022/03/07 13:12:06;;;;;;;0.63;0.63;;;3.60;56.80;;;;;;5034912;28;20458;-85
2022/03/07 13:14:35;;;;;;;0.43;0.43;;;3.50;56.80;;;;;;5035194;28;20439;-87
2022/03/07 13:17:10;;;;;;;1.27;1.27;;;3.40;57.20;;;;;;5034815;28;20459;-86
2022/03/07 13:19:37;;;;;;;1.53;1.53;;;3.40;57.00;;;;;;5034978;28;20473;-85
2022/03/07 13:22:06;;;;;;;5.80;0.67;;;3.40;56.40;;;;;;5034373;28;20462;-84
2022/03/07 13:24:33;;;;;;;0.70;0.70;;;3.30;56.90;;;;;;5034600;28;20541;-86
2022/03/07 13:27:02;;;;;;;1.13;1.03;;;3.30;56.90;;;;;;5034658;28;20434;-85
2022/03/07 13:29:30;;;;;;;0.50;0.30;;;3.20;56.60;;;;;;5034600;28;20533;-85
2022/03/07 13:32:01;;;;;;;0.30;0.30;;;3.20;57.00;;;;;;5034635;28;20458;-86
2022/03/07 13:34:41;;;;;;;0.30;0.27;;;3.20;56.90;;;;;;5035254;28;20457;-86
2022/03/07 13:37:08;;;;;;;0.30;0.30;;;3.30;56.90;;;;;;5034497;28;20435;-85
2022/03/07 13:39:36;;;;;;;0.63;0.63;;;3.30;57.00;;;;;;5034019;28;20513;-85
2022/03/07 13:42:06;;;;;;;0.63;0.40;;;3.30;56.50;;;;;;5034432;28;20509;-86
2022/03/07 13:44:37;;;;;;;0.53;0.53;;;3.40;56.40;;;;;;5034373;28;20601;-85
2022/03/07 13:47:08;;;;;;;3.13;0.97;;;3.40;56.80;;;;;;5034016;28;20541;-85
2022/03/07 13:49:44;;;;;;;0.50;0.40;;;3.40;56.00;;;;;;5034539;28;20477;-86
2022/03/07 13:52:22;;;;;;;0.47;0.40;;;3.40;56.10;;;;;;5034161;28;20780;-87
2022/03/07 13:54:50;;;;;;;0.40;0.40;;;3.30;56.20;;;;;;5034179;28;20521;-86
2022/03/07 14:10:39;;;;;;;0.30;0.30;;;3.30;54.80;;;;;;4916040;29;20533;-80
2022/03/07 14:23:09;;;;;;;0.30;0.30;;;3.00;55.80;;;;;;4878236;29;20563;-84
2022/03/07 14:25:38;;;;;;;0.80;0.60;;;3.00;55.00;;;;;;4976730;28;20451;-84
2022/03/07 14:28:06;;;;;;;0.50;0.50;;;3.10;54.60;;;;;;5033742;28;20451;-85
2022/03/07 14:30:33;;;;;;;2.83;2.73;;;3.20;54.80;;;;;;5033860;28;20898;-84
2022/03/07 14:33:00;;;;;;;0.30;0.30;;;3.10;55.00;;;;;;5033218;28;20419;-85
2022/03/07 14:35:26;;;;;;;2.73;1.03;;;3.00;55.50;;;;;;5033423;28;20898;-84
2022/03/07 14:37:55;;;;;;;0.87;0.50;;;3.00;56.10;;;;;;5033507;28;20435;-85
2022/03/07 14:40:22;;;;;;;0.30;0.30;;;3.00;55.60;;;;;;5033361;28;20446;-84
2022/03/07 14:42:51;;;;;;;0.30;0.30;;;3.10;56.40;;;;;;5033488;28;20805;-81
2022/03/07 14:45:20;;;;;;;0.30;0.30;;;3.10;55.80;;;;;;5033793;28;20477;-84
2022/03/07 14:47:49;;;;;;;0.50;0.50;;;3.10;56.00;;;;;;5033086;28;20493;-85
2022/03/07 14:50:18;;;;;;;0.57;0.57;;;3.20;55.90;;;;;;5033255;28;20489;-85
2022/03/07 14:52:47;;;;;;;0.60;0.60;;;3.20;56.00;;;;;;5033467;28;20423;-84
2022/03/07 14:55:14;;;;;;;0.57;0.57;;;3.20;55.60;;;;;;5033495;28;20481;-85
2022/03/07 14:57:42;;;;;;;0.40;0.40;;;3.20;55.40;;;;;;5033364;28;20431;-85
2022/03/07 15:00:13;;;;;;;0.50;0.40;;;3.20;55.60;;;;;;5033409;28;20486;-84
2022/03/07 15:02:40;;;;;;;0.60;0.47;;;3.20;55.50;;;;;;5033495;28;20435;-84
2022/03/07 15:05:08;;;;;;;1.73;0.70;;;3.20;55.50;;;;;;5033341;28;20852;-85
2022/03/07 15:21:04;;;;;;;0.70;0.70;;;3.10;56.00;;;;;;5033238;28;20463;-85
2022/03/07 15:23:32;;;;;;;0.70;0.70;;;3.00;55.50;;;;;;5033506;28;20454;-85
2022/03/07 15:25:59;;;;;;;0.30;0.30;;;3.00;56.20;;;;;;5033032;28;20501;-85
2022/03/07 15:34:59;;;;;;;0.50;0.50;;;3.00;56.60;;;;;;5032417;28;20446;-84
2022/03/07 15:40:53;;;;;;;0.90;0.60;;;2.90;56.30;;;;;;5032687;28;20422;-85
2022/03/07 15:43:20;;;;;;;0.30;0.30;;;2.90;56.50;;;;;;5033219;28;20558;-86
2022/03/07 15:45:47;;;;;;;0.30;0.30;;;2.90;56.30;;;;;;5035576;28;20486;-85
2022/03/07 15:48:14;;;;;;;0.97;0.97;;;2.90;56.40;;;;;;5036532;28;20459;-86
2022/03/07 15:50:40;;;;;;;0.30;0.30;;;2.90;56.50;;;;;;5036975;28;20458;-86
2022/03/07 15:53:07;;;;;;;0.30;0.30;;;2.90;56.30;;;;;;5036475;28;20800;-80
2022/03/07 15:55:34;;;;;;;0.30;0.20;;;2.80;56.30;;;;;;5036420;28;20534;-82
2022/03/07 15:58:02;;;;;;;0.87;0.70;;;2.80;56.90;;;;;;5036186;28;20439;-85
2022/03/07 16:00:29;;;;;;;2.60;1.00;;;2.70;57.30;;;;;;5036038;28;20412;-85
2022/03/07 16:02:56;;;;;;;0.30;0.30;;;2.80;56.90;;;;;;5036011;28;20422;-84
2022/03/07 16:05:24;;;;;;;0.50;0.50;;;2.70;56.60;;;;;;5036710;28;20478;-85
2022/03/07 16:07:51;;;;;;;0.40;0.40;;;2.80;56.40;;;;;;5036675;28;20447;-84
2022/03/07 16:10:19;;;;;;;0.40;0.40;;;2.80;56.50;;;;;;5036128;28;20450;-85
2022/03/07 16:12:45;;;;;;;0.50;0.40;;;2.80;56.50;;;;;;5036296;28;20429;-85
2022/03/07 16:15:14;;;;;;;0.97;0.70;;;2.80;57.20;;;;;;5035807;28;20453;-84
2022/03/07 16:17:42;;;;;;;0.40;0.40;;;2.70;57.20;;;;;;5035840;28;20460;-84
2022/03/07 16:20:09;;;;;;;0.70;0.70;;;2.70;56.80;;;;;;5035877;28;20465;-85
2022/03/07 16:22:36;;;;;;;0.90;0.50;;;2.70;57.10;;;;;;5036542;28;20454;-79
2022/03/07 16:25:04;;;;;;;0.30;0.27;;;2.70;56.90;;;;;;5035525;28;20932;-79
2022/03/07 16:27:31;;;;;;;3.63;0.60;;;2.70;57.00;;;;;;5035638;28;20466;-79
2022/03/07 16:29:58;;;;;;;0.63;0.63;;;2.70;57.40;;;;;;5035911;28;20467;-78
2022/03/07 16:32:26;;;;;;;0.30;0.27;;;2.70;56.90;;;;;;5035735;28;20457;-84
2022/03/07 16:34:52;;;;;;;0.30;0.30;;;2.60;57.60;;;;;;5035373;28;20451;-86
2022/03/07 16:37:19;;;;;;;0.30;0.30;;;2.60;57.00;;;;;;5035469;28;20937;-86
2022/03/07 16:39:46;;;;;;;0.77;0.67;;;2.50;57.80;;;;;;5035211;28;20485;-84
2022/03/07 16:42:13;;;;;;;0.30;0.30;;;2.60;57.40;;;;;;5035333;28;20443;-83
2022/03/07 16:44:40;;;;;;;3.60;1.23;;;2.60;57.40;;;;;;5035131;28;20490;-84
2022/03/07 16:47:07;;;;;;;1.07;0.97;;;2.60;57.80;;;;;;5034938;28;21020;-85
2022/03/07 16:49:35;;;;;;;0.30;0.30;;;2.50;58.20;;;;;;5035457;28;20474;-84
2022/03/07 16:52:01;;;;;;;3.13;0.73;;;2.50;57.80;;;;;;5035179;28;20918;-85
2022/03/07 16:54:28;;;;;;;0.30;0.30;;;2.40;57.70;;;;;;5034954;28;20821;-85
2022/03/07 16:56:55;;;;;;;0.50;0.43;;;2.40;57.90;;;;;;5034748;28;20435;-85
2022/03/07 16:59:22;;;;;;;1.80;0.77;;;2.30;58.50;;;;;;5034883;28;20998;-86
2022/03/07 17:01:49;;;;;;;0.83;0.83;;;2.30;58.30;;;;;;5035208;28;20412;-86
2022/03/07 17:04:15;;;;;;;2.10;1.53;;;2.20;58.90;;;;;;5035062;28;20470;-83
2022/03/07 17:06:44;;;;;;;0.40;0.40;;;2.10;59.10;;;;;;5035228;28;20418;-82
2022/03/07 17:09:11;;;;;;;0.30;0.30;;;2.00;59.40;;;;;;5035019;28;20834;-83
2022/03/07 17:11:38;;;;;;;1.90;0.70;;;2.00;59.50;;;;;;5034887;28;20427;-82
2022/03/07 17:14:04;;;;;;;0.40;0.40;;;2.00;59.30;;;;;;5035119;28;20439;-85
2022/03/07 17:16:31;;;;;;;0.40;0.40;;;2.10;58.90;;;;;;5035107;28;20416;-85
2022/03/07 17:18:58;;;;;;;1.07;0.93;;;2.00;59.30;;;;;;5035426;28;20982;-84
2022/03/07 17:21:25;;;;;;;0.47;0.40;;;1.90;59.20;;;;;;5035175;28;20415;-83
2022/03/07 17:23:53;;;;;;;0.70;0.40;;;1.80;59.90;;;;;;5034816;28;20443;-85
2022/03/07 17:26:21;;;;;;;0.60;0.57;;;1.80;59.80;;;;;;5034866;28;20451;-84
2022/03/07 17:28:47;;;;;;;0.33;0.33;;;1.80;59.60;;;;;;5035674;28;20471;-85
2022/03/07 17:31:14;;;;;;;1.10;0.90;;;1.80;59.60;;;;;;5035772;28;20412;-84
2022/03/07 17:33:41;;;;;;;0.30;0.30;;;1.80;59.80;;;;;;5035041;28;20993;-84
2022/03/07 17:36:08;;;;;;;0.30;0.30;;;1.60;60.10;;;;;;5034521;28;20811;-86
2022/03/07 17:38:35;;;;;;;0.57;0.57;;;1.60;60.30;;;;;;5035967;28;20466;-85
2022/03/07 17:41:04;;;;;;;0.70;0.70;;;1.50;60.60;;;;;;5038883;28;20458;-86
2022/03/07 17:43:31;;;;;;;0.30;0.30;;;1.50;61.00;;;;;;5038651;28;20458;-87
2022/03/07 17:45:57;;;;;;;0.30;0.30;;;1.40;61.40;;;;;;5039126;28;20487;-86
2022/03/07 17:48:24;;;;;;;0.77;0.77;;;1.30;61.20;;;;;;5036770;28;20471;-85
2022/03/07 17:50:51;;;;;;;0.30;0.30;;;1.30;60.90;;;;;;5034872;28;20451;-85
2022/03/07 17:53:18;;;;;;;0.60;0.60;;;1.30;60.80;;;;;;5034518;28;20451;-85
2022/03/07 17:55:47;;;;;;;2.00;1.90;;;1.30;60.70;;;;;;5034637;28;20443;-85
2022/03/07 17:58:15;;;;;;;0.30;0.30;;;1.30;61.30;;;;;;5033789;28;20895;-85
2022/03/07 18:00:42;;;;;;;0.30;0.20;;;1.20;61.60;;;;;;5034038;28;20462;-85
2022/03/07 18:03:09;;;;;;;0.57;0.57;;;1.20;61.70;;;;;;5034228;28;20459;-86
2022/03/07 18:05:36;;;;;;;0.60;0.60;;;1.10;61.40;;;;;;5033973;28;20497;-85
2022/03/07 18:08:03;;;;;;;0.70;0.70;;;1.10;62.00;;;;;;5032710;28;20443;-86
2022/03/07 18:10:30;;;;;;;0.53;0.53;;;1.00;61.60;;;;;;5033532;28;20942;-84
2022/03/07 18:12:57;;;;;;;0.40;0.30;;;1.00;61.40;;;;;;5034072;28;20447;-85